createdAt,value
2022-11-22T00:00:40.656Z,3.20
2022-11-22T00:03:07.901Z,3.20
2022-11-22T00:05:34.958Z,3.20
2022-11-22T00:08:02.246Z,3.20
2022-11-22T00:10:29.257Z,3.20
2022-11-22T00:12:56.216Z,3.20
2022-11-22T00:15:23.574Z,3.20
2022-11-22T00:17:50.537Z,3.10
2022-11-22T00:20:17.908Z,3.20
2022-11-22T00:22:45.533Z,3.20
2022-11-22T00:25:13.553Z,3.20
2022-11-22T00:27:40.912Z,3.10
2022-11-22T00:30:08.808Z,3.10
2022-11-22T00:32:35.816Z,3.20
2022-11-22T00:35:03.229Z,3.10
2022-11-22T00:37:30.310Z,3.10
2022-11-22T00:39:57.282Z,3.10
2022-11-22T00:42:24.431Z,3.00
2022-11-22T00:44:51.424Z,3.00
2022-11-22T00:47:18.520Z,3.00
2022-11-22T00:49:45.433Z,3.00
2022-11-22T00:52:14.276Z,3.00
2022-11-22T00:54:41.688Z,2.90
2022-11-22T00:57:08.655Z,3.00
2022-11-22T00:59:35.710Z,3.00
2022-11-22T01:02:02.652Z,3.00
2022-11-22T01:04:29.589Z,3.00
2022-11-22T01:06:56.766Z,3.00
2022-11-22T01:09:24.349Z,3.00
2022-11-22T01:11:52.144Z,3.10
2022-11-22T01:14:19.459Z,3.10
2022-11-22T01:16:46.946Z,3.20
2022-11-22T01:19:14.789Z,3.20
2022-11-22T01:21:42.018Z,3.20
2022-11-22T01:24:09.319Z,3.30
2022-11-22T01:26:36.603Z,3.30
2022-11-22T01:29:04.325Z,3.30
2022-11-22T01:31:31.479Z,3.30
2022-11-22T01:33:59.311Z,3.30
2022-11-22T01:36:27.378Z,3.30
2022-11-22T01:38:54.336Z,3.20
2022-11-22T01:41:21.252Z,3.20
2022-11-22T01:43:48.434Z,3.10
2022-11-22T01:46:39.339Z,3.10
2022-11-22T01:49:23.469Z,3.10
2022-11-22T01:51:52.713Z,3.10
2022-11-22T01:54:24.493Z,3.00
2022-11-22T01:56:56.235Z,3.00
2022-11-22T01:59:29.655Z,3.00
2022-11-22T02:01:57.658Z,3.00
2022-11-22T02:04:26.552Z,3.00
2022-11-22T02:07:21.753Z,3.00
2022-11-22T02:09:52.463Z,3.00
2022-11-22T02:12:27.541Z,3.00
2022-11-22T02:14:55.215Z,3.00
2022-11-22T02:17:22.236Z,3.00
2022-11-22T02:19:50.810Z,3.00
2022-11-22T02:22:53.039Z,3.00
2022-11-22T02:25:20.042Z,3.10
2022-11-22T02:27:47.289Z,3.10
2022-11-22T02:30:14.382Z,3.10
2022-11-22T02:32:41.334Z,3.00
2022-11-22T02:35:24.533Z,3.00
2022-11-22T02:37:57.120Z,3.10
2022-11-22T02:40:26.659Z,3.10
2022-11-22T02:43:03.205Z,3.10
2022-11-22T02:45:31.442Z,3.10
2022-11-22T02:48:06.427Z,3.10
2022-11-22T02:50:33.364Z,3.20
2022-11-22T02:53:00.298Z,3.20
2022-11-22T02:55:27.398Z,3.20
2022-11-22T02:57:54.666Z,3.20
2022-11-22T03:00:22.064Z,3.20
2022-11-22T03:02:49.004Z,3.20
2022-11-22T03:05:16.388Z,3.30
2022-11-22T03:07:43.395Z,3.30
2022-11-22T03:10:10.868Z,3.40
2022-11-22T03:12:37.908Z,3.30
2022-11-22T03:15:05.238Z,3.30
2022-11-22T03:17:32.177Z,3.40
2022-11-22T03:19:59.151Z,3.40
2022-11-22T03:22:26.406Z,3.40
2022-11-22T03:24:53.327Z,3.40
2022-11-22T03:27:20.311Z,3.40
2022-11-22T03:29:47.285Z,3.30
2022-11-22T03:32:14.294Z,3.30
2022-11-22T03:34:41.234Z,3.30
2022-11-22T03:37:08.168Z,3.30
2022-11-22T03:39:35.110Z,3.30
2022-11-22T03:42:02.204Z,3.30
2022-11-22T03:44:29.155Z,3.30
2022-11-22T03:46:56.196Z,3.30
2022-11-22T03:49:23.141Z,3.30
2022-11-22T03:51:50.189Z,3.30
2022-11-22T03:54:17.364Z,3.30
2022-11-22T03:56:44.306Z,3.30
2022-11-22T03:59:11.328Z,3.30
2022-11-22T04:01:38.347Z,3.30
2022-11-22T04:04:05.576Z,3.40
2022-11-22T04:06:32.894Z,3.40
2022-11-22T04:08:59.942Z,3.50
2022-11-22T04:11:27.086Z,3.50
2022-11-22T04:14:12.844Z,3.50
2022-11-22T04:16:40.063Z,3.50
2022-11-22T04:19:07.553Z,3.60
2022-11-22T04:21:34.571Z,3.50
2022-11-22T04:24:21.997Z,3.60
2022-11-22T04:26:49.208Z,3.60
2022-11-22T04:29:17.289Z,3.60
2022-11-22T04:32:07.922Z,3.50
2022-11-22T04:34:35.528Z,3.50
2022-11-22T04:37:03.623Z,3.50
2022-11-22T04:39:31.051Z,3.50
2022-11-22T04:42:16.944Z,3.50
2022-11-22T04:44:44.222Z,3.50
2022-11-22T04:47:13.423Z,3.50
2022-11-22T04:49:40.345Z,3.50
2022-11-22T04:52:25.825Z,3.50
2022-11-22T04:54:52.768Z,3.50
2022-11-22T04:57:19.701Z,3.40
2022-11-22T04:59:46.640Z,3.40
2022-11-22T05:02:13.543Z,3.40
2022-11-22T05:04:40.497Z,3.30
2022-11-22T05:07:07.469Z,3.30
2022-11-22T05:09:34.421Z,3.20
2022-11-22T05:12:01.471Z,3.10
2022-11-22T05:14:28.401Z,3.10
2022-11-22T05:16:55.411Z,3.10
2022-11-22T05:19:22.301Z,3.20
2022-11-22T05:21:49.269Z,3.20
2022-11-22T05:24:16.177Z,3.20
2022-11-22T05:26:43.334Z,3.10
2022-11-22T05:29:11.011Z,3.10
2022-11-22T05:31:40.001Z,3.10
2022-11-22T05:34:07.300Z,3.10
2022-11-22T05:36:34.920Z,3.10
2022-11-22T05:39:02.617Z,3.10
2022-11-22T05:41:29.618Z,3.20
2022-11-22T05:43:57.515Z,3.30
2022-11-22T05:46:26.954Z,3.40
2022-11-22T05:48:56.321Z,3.50
2022-11-22T05:51:32.516Z,3.70
2022-11-22T05:54:02.117Z,3.90
2022-11-22T05:56:29.037Z,3.90
2022-11-22T05:58:56.078Z,3.90
2022-11-22T06:01:25.040Z,4.00
2022-11-22T06:03:52.405Z,4.00
2022-11-22T06:06:19.763Z,4.00
2022-11-22T06:08:48.318Z,4.00
2022-11-22T06:11:21.616Z,4.00
2022-11-22T06:13:51.329Z,4.00
2022-11-22T06:16:18.490Z,3.90
2022-11-22T06:18:45.752Z,4.00
2022-11-22T06:21:16.064Z,4.10
2022-11-22T06:23:43.175Z,4.20
2022-11-22T06:26:16.693Z,4.30
2022-11-22T06:28:44.361Z,4.30
2022-11-22T06:31:14.572Z,4.40
2022-11-22T06:33:50.382Z,4.40
2022-11-22T06:36:20.346Z,4.40
2022-11-22T06:38:47.855Z,4.40
2022-11-22T06:41:17.823Z,4.40
2022-11-22T06:43:49.001Z,4.50
2022-11-22T06:46:18.798Z,4.50
2022-11-22T06:48:45.797Z,4.40
2022-11-22T06:51:17.768Z,4.40
2022-11-22T06:53:48.274Z,4.40
2022-11-22T06:56:22.150Z,4.30
2022-11-22T06:58:50.472Z,4.30
2022-11-22T07:01:23.570Z,4.40
2022-11-22T07:03:51.319Z,4.40
2022-11-22T07:06:19.775Z,4.40
2022-11-22T07:08:47.220Z,4.50
2022-11-22T07:11:22.726Z,4.50
2022-11-22T07:13:50.568Z,4.50
2022-11-22T07:16:20.297Z,4.50
2022-11-22T07:18:48.684Z,4.50
2022-11-22T07:21:19.234Z,4.50
2022-11-22T07:23:48.276Z,4.50
2022-11-22T07:26:16.999Z,4.60
2022-11-22T07:28:45.087Z,4.60
2022-11-22T07:31:14.183Z,4.60
2022-11-22T07:33:42.394Z,4.70
2022-11-22T07:36:12.724Z,4.80
2022-11-22T07:38:39.659Z,4.80
2022-11-22T07:41:07.436Z,4.80
2022-11-22T07:43:34.923Z,4.90
2022-11-22T07:46:04.309Z,5.00
2022-11-22T07:48:31.350Z,5.00
2022-11-22T07:51:04.837Z,5.00
2022-11-22T07:53:32.263Z,5.10
2022-11-22T07:56:08.884Z,5.20
2022-11-22T07:58:36.371Z,5.20
2022-11-22T08:01:09.146Z,5.20
2022-11-22T08:03:37.441Z,5.20
2022-11-22T08:06:07.090Z,5.30
2022-11-22T08:08:35.505Z,5.30
2022-11-22T08:11:02.637Z,5.30
2022-11-22T08:13:30.629Z,5.30
2022-11-22T08:16:12.062Z,5.40
2022-11-22T08:18:40.317Z,5.40
2022-11-22T08:21:13.030Z,5.50
2022-11-22T08:23:41.374Z,5.60
2022-11-22T08:26:11.093Z,5.70
2022-11-22T08:28:38.375Z,5.70
2022-11-22T08:31:12.257Z,5.80
2022-11-22T08:33:39.727Z,5.80
2022-11-22T08:36:07.265Z,5.90
2022-11-22T08:38:34.637Z,6.00
2022-11-22T08:41:01.896Z,6.10
2022-11-22T08:43:28.972Z,6.10
2022-11-22T08:45:58.015Z,6.20
2022-11-22T08:48:26.547Z,6.30
2022-11-22T08:50:56.156Z,6.30
2022-11-22T08:53:23.703Z,6.40
2022-11-22T08:55:51.801Z,6.50
2022-11-22T08:58:18.920Z,6.50
2022-11-22T09:00:46.037Z,6.60
2022-11-22T09:03:13.301Z,6.70
2022-11-22T09:08:29.056Z,6.80
2022-11-22T09:11:04.468Z,6.90
2022-11-22T09:13:32.042Z,6.80
2022-11-22T09:16:04.139Z,6.90
2022-11-22T09:18:31.452Z,7.00
2022-11-22T09:21:02.892Z,7.00
2022-11-22T09:23:30.062Z,7.00
2022-11-22T09:26:04.012Z,6.90
2022-11-22T09:28:31.423Z,6.80
2022-11-22T09:31:12.526Z,6.80
2022-11-22T09:33:41.332Z,7.00
2022-11-22T09:36:13.282Z,7.20
2022-11-22T09:38:40.849Z,7.50
2022-11-22T09:41:17.002Z,7.80
2022-11-22T09:44:06.762Z,8.10
2022-11-22T09:46:58.305Z,8.30
2022-11-22T09:49:38.994Z,8.50
2022-11-22T09:52:32.408Z,8.60
2022-11-22T09:55:31.788Z,8.60
2022-11-22T09:58:11.377Z,8.70
2022-11-22T10:00:39.838Z,8.70
2022-11-22T10:03:40.856Z,8.80
2022-11-22T10:06:14.733Z,8.70
2022-11-22T10:08:52.730Z,8.80
2022-11-22T10:11:25.963Z,8.80
2022-11-22T10:14:00.226Z,8.90
2022-11-22T10:16:41.957Z,8.80
2022-11-22T10:19:25.535Z,8.70
2022-11-22T10:21:52.519Z,8.60
2022-11-22T10:24:20.065Z,8.50
2022-11-22T10:26:47.285Z,8.30
2022-11-22T10:29:33.053Z,8.30
2022-11-22T10:32:25.266Z,8.30
2022-11-22T10:34:54.982Z,8.30
2022-11-22T10:37:31.158Z,8.30
2022-11-22T10:40:10.192Z,8.30
2022-11-22T10:42:54.371Z,8.30
2022-11-22T10:45:33.531Z,8.20
2022-11-22T10:48:26.012Z,8.10
2022-11-22T10:51:02.010Z,8.10
2022-11-22T10:53:39.020Z,8.10
2022-11-22T10:56:09.224Z,8.20
2022-11-22T10:59:05.443Z,8.30
2022-11-22T11:02:13.979Z,8.50
2022-11-22T11:04:42.971Z,8.40
2022-11-22T11:07:20.805Z,8.40
2022-11-22T11:10:10.870Z,8.40
2022-11-22T11:12:51.168Z,8.40
2022-11-22T11:15:24.059Z,8.30
2022-11-22T11:18:22.873Z,8.30
2022-11-22T11:20:51.693Z,8.40
2022-11-22T11:23:18.753Z,8.40
2022-11-22T11:25:48.085Z,8.40
2022-11-22T11:28:24.016Z,8.40
2022-11-22T11:31:11.521Z,8.40
2022-11-22T11:33:41.128Z,8.50
2022-11-22T11:36:10.511Z,8.50
2022-11-22T11:38:43.656Z,8.50
2022-11-22T11:41:30.143Z,8.30
2022-11-22T11:44:02.144Z,8.30
2022-11-22T11:46:44.924Z,8.20
2022-11-22T11:49:21.185Z,8.20
2022-11-22T11:51:54.570Z,8.20
2022-11-22T11:54:23.331Z,8.10
2022-11-22T11:56:59.973Z,8.00
2022-11-22T11:59:45.897Z,8.00
2022-11-22T12:02:21.106Z,7.90
2022-11-22T12:05:16.003Z,7.80
2022-11-22T12:07:48.012Z,7.70
2022-11-22T12:10:30.645Z,7.70
2022-11-22T12:13:35.294Z,7.60
2022-11-22T12:16:22.467Z,7.50
2022-11-22T12:18:56.322Z,7.50
2022-11-22T12:21:47.460Z,7.60
2022-11-22T12:24:52.315Z,7.70
2022-11-22T12:27:22.865Z,7.70
2022-11-22T12:29:50.028Z,7.80
2022-11-22T12:32:37.893Z,7.80
2022-11-22T12:35:19.998Z,7.80
2022-11-22T12:38:01.841Z,7.80
2022-11-22T12:40:42.802Z,7.80
2022-11-22T12:43:27.189Z,7.90
2022-11-22T12:46:01.957Z,7.90
2022-11-22T12:48:44.559Z,7.90
2022-11-22T12:51:30.432Z,7.90
2022-11-22T12:54:05.109Z,7.90
2022-11-22T12:56:49.777Z,7.80
2022-11-22T12:59:46.765Z,7.70
2022-11-22T13:02:39.191Z,7.80
2022-11-22T13:05:23.153Z,7.70
2022-11-22T13:08:14.589Z,7.60
2022-11-22T13:11:05.654Z,7.70
2022-11-22T13:13:47.603Z,7.60
2022-11-22T13:16:15.377Z,7.60
2022-11-22T13:18:55.708Z,7.50
2022-11-22T13:21:25.778Z,7.50
2022-11-22T13:23:58.285Z,7.40
2022-11-22T13:26:37.123Z,7.40
2022-11-22T13:29:15.946Z,7.40
2022-11-22T13:32:16.485Z,7.40
2022-11-22T13:35:01.379Z,7.30
2022-11-22T13:37:30.702Z,7.30
2022-11-22T13:40:18.708Z,7.20
2022-11-22T13:42:45.716Z,7.20
2022-11-22T13:45:25.614Z,7.20
2022-11-22T13:47:52.985Z,7.10
2022-11-22T13:50:41.072Z,7.10
2022-11-22T13:53:20.284Z,7.10
2022-11-22T13:55:47.629Z,7.10
2022-11-22T13:58:26.815Z,7.00
2022-11-22T14:00:55.652Z,7.00
2022-11-22T14:03:28.655Z,7.00
2022-11-22T14:05:57.049Z,6.90
2022-11-22T14:08:42.422Z,6.90
2022-11-22T14:11:45.731Z,6.80
2022-11-22T14:14:33.622Z,6.80
2022-11-22T14:17:18.518Z,6.70
2022-11-22T14:20:03.133Z,6.70
2022-11-22T14:22:41.858Z,6.70
2022-11-22T14:25:26.866Z,6.60
2022-11-22T14:28:20.243Z,6.60
2022-11-22T14:30:52.853Z,6.50
2022-11-22T14:33:21.258Z,6.40
2022-11-22T14:36:06.692Z,6.30
2022-11-22T14:38:33.768Z,6.30
2022-11-22T14:41:28.438Z,6.10
2022-11-22T14:44:02.691Z,6.10
2022-11-22T14:46:53.295Z,6.00
2022-11-22T14:49:33.298Z,6.00
2022-11-22T14:52:01.792Z,5.90
2022-11-22T14:54:39.137Z,5.90
2022-11-22T14:57:08.072Z,5.80
2022-11-22T14:59:49.711Z,5.70
2022-11-22T15:02:28.473Z,5.80
2022-11-22T15:09:16.797Z,5.60
2022-11-22T15:09:18.600Z,5.70
2022-11-22T15:11:02.796Z,5.60
2022-11-22T15:13:47.201Z,5.50
2022-11-22T15:57:27.405Z,4.70
2022-11-22T15:59:55.737Z,4.70
2022-11-22T16:02:30.526Z,4.60
2022-11-22T16:06:06.891Z,4.60
2022-11-22T16:07:56.826Z,4.60
2022-11-22T16:10:37.842Z,4.70
2022-11-22T16:13:35.117Z,4.70
2022-11-22T16:16:10.999Z,4.60
2022-11-22T16:18:39.304Z,4.60
2022-11-22T16:21:29.409Z,4.60
2022-11-22T16:24:17.797Z,4.50
2022-11-22T16:27:00.345Z,4.50
2022-11-22T16:29:33.329Z,4.40
2022-11-22T16:32:20.834Z,4.40
2022-11-22T16:34:51.595Z,4.40
2022-11-22T16:37:34.647Z,4.30
2022-11-22T16:40:06.240Z,4.30
2022-11-22T16:42:35.522Z,4.30
2022-11-22T16:45:04.299Z,4.30
2022-11-22T16:47:31.568Z,4.20
2022-11-22T16:49:58.513Z,4.20
2022-11-22T16:52:25.620Z,4.20
2022-11-22T16:54:52.620Z,4.30
2022-11-22T16:57:19.549Z,4.20
2022-11-22T16:59:46.521Z,4.20
2022-11-22T17:02:17.626Z,4.30
2022-11-22T17:04:49.150Z,4.30
2022-11-22T17:07:17.196Z,4.40
2022-11-22T17:09:44.163Z,4.40
2022-11-22T17:12:27.795Z,4.40
2022-11-22T17:14:57.717Z,4.40
2022-11-22T17:17:24.668Z,4.50
2022-11-22T17:19:53.548Z,4.50
2022-11-22T17:22:21.056Z,4.60
2022-11-22T17:24:47.991Z,4.60
2022-11-22T17:27:15.292Z,4.60
2022-11-22T17:29:50.388Z,4.60
2022-11-22T17:32:19.878Z,4.60
2022-11-22T17:34:47.027Z,4.50
2022-11-22T17:37:14.293Z,4.50
2022-11-22T17:39:41.470Z,4.40
2022-11-22T17:42:08.506Z,4.40
2022-11-22T17:44:35.451Z,4.30
2022-11-22T17:47:02.460Z,4.20
2022-11-22T17:49:29.871Z,4.20
2022-11-22T17:51:57.133Z,4.10
2022-11-22T17:54:24.037Z,4.10
2022-11-22T17:56:51.032Z,4.00
2022-11-22T17:59:18.571Z,4.00
2022-11-22T18:01:45.502Z,4.00
2022-11-22T18:04:14.675Z,3.90
2022-11-22T18:06:41.748Z,4.00
2022-11-22T18:09:08.864Z,3.90
2022-11-22T18:11:36.436Z,3.90
2022-11-22T18:14:03.407Z,3.90
2022-11-22T18:16:31.341Z,3.90
2022-11-22T18:18:59.206Z,4.00
2022-11-22T18:21:29.576Z,4.00
2022-11-22T18:23:58.106Z,4.10
2022-11-22T18:26:41.557Z,4.10
2022-11-22T18:31:57.401Z,4.20
2022-11-22T18:34:25.713Z,4.20
2022-11-22T18:37:00.806Z,4.30
2022-11-22T18:39:31.363Z,4.30
2022-11-22T18:41:58.709Z,4.40
2022-11-22T18:44:25.772Z,4.40
2022-11-22T18:46:53.070Z,4.50
2022-11-22T18:49:20.328Z,4.50
2022-11-22T18:51:47.391Z,4.50
2022-11-22T18:54:14.646Z,4.60
2022-11-22T18:56:41.816Z,4.60
2022-11-22T18:59:12.848Z,4.60
2022-11-22T19:01:40.893Z,4.60
2022-11-22T19:04:09.376Z,4.60
2022-11-22T19:06:36.497Z,4.60
2022-11-22T19:09:03.701Z,4.70
2022-11-22T19:11:32.302Z,4.70
2022-11-22T19:13:59.924Z,4.70
2022-11-22T19:16:30.464Z,4.80
2022-11-22T19:18:58.801Z,4.80
2022-11-22T19:21:28.005Z,4.80
2022-11-22T19:23:56.584Z,4.80
2022-11-22T19:26:25.581Z,4.80
2022-11-22T19:28:56.133Z,4.80
2022-11-22T19:31:29.540Z,4.80
2022-11-22T19:33:57.524Z,4.80
2022-11-22T19:36:32.593Z,4.80
2022-11-22T19:39:00.630Z,4.80
2022-11-22T19:41:27.665Z,4.80
2022-11-22T19:43:56.667Z,4.80
2022-11-22T19:46:24.706Z,4.80
2022-11-22T19:48:56.670Z,4.80
2022-11-22T19:51:28.440Z,4.80
2022-11-22T19:53:59.568Z,4.70
2022-11-22T19:56:30.383Z,4.70
2022-11-22T19:58:58.960Z,4.60
2022-11-22T20:01:27.940Z,4.60
2022-11-22T20:03:58.226Z,4.50
2022-11-22T20:06:25.570Z,4.50
2022-11-22T20:08:52.805Z,4.50
2022-11-22T20:11:21.187Z,4.50
2022-11-22T20:13:50.383Z,4.50
2022-11-22T20:16:25.617Z,4.40
2022-11-22T20:19:00.394Z,4.50
2022-11-22T20:21:29.348Z,4.50
2022-11-22T20:23:56.923Z,4.50
2022-11-22T20:26:25.242Z,4.50
2022-11-22T20:28:57.463Z,4.50
2022-11-22T20:31:24.918Z,4.40
2022-11-22T20:33:53.532Z,4.30
2022-11-22T20:36:25.142Z,4.30
2022-11-22T20:38:53.491Z,4.10
2022-11-22T20:41:23.687Z,4.10
2022-11-22T20:43:50.756Z,4.10
2022-11-22T20:46:20.282Z,4.00
2022-11-22T20:48:48.508Z,3.90
2022-11-22T20:51:19.061Z,3.80
2022-11-22T20:53:46.618Z,3.70
2022-11-22T20:56:14.260Z,3.60
2022-11-22T20:58:41.867Z,3.50
2022-11-22T21:01:15.366Z,3.40
2022-11-22T21:03:42.700Z,3.40
2022-11-22T21:06:12.034Z,3.30
2022-11-22T21:08:39.448Z,3.20
2022-11-22T21:11:07.471Z,3.10
2022-11-22T21:13:34.621Z,3.10
2022-11-22T21:16:21.526Z,3.10
2022-11-22T21:19:05.219Z,3.10
2022-11-22T21:21:34.901Z,3.10
2022-11-22T21:24:03.918Z,3.00
2022-11-22T21:26:31.669Z,3.00
2022-11-22T21:28:59.644Z,2.90
2022-11-22T21:31:27.512Z,2.80
2022-11-22T21:33:54.723Z,2.80
2022-11-22T21:36:22.730Z,2.70
2022-11-22T21:38:49.855Z,2.60
2022-11-22T21:44:06.420Z,2.60
2022-11-22T21:46:33.440Z,2.50
2022-11-22T21:49:00.443Z,2.40
2022-11-22T21:51:27.593Z,2.50
2022-11-22T21:54:01.809Z,2.40
2022-11-22T21:56:28.982Z,2.30
2022-11-22T21:58:56.012Z,2.20
2022-11-22T22:01:24.324Z,2.20
2022-11-22T22:03:52.010Z,2.20
2022-11-22T22:06:19.489Z,2.20
2022-11-22T22:08:46.436Z,2.10
2022-11-22T22:11:14.177Z,2.10
2022-11-22T22:13:41.294Z,2.10
2022-11-22T22:16:13.149Z,2.10
2022-11-22T22:18:40.316Z,2.10
2022-11-22T22:21:09.945Z,2.00
2022-11-22T22:23:39.062Z,1.90
2022-11-22T22:26:08.383Z,1.90
2022-11-22T22:28:37.293Z,1.90
2022-11-22T22:31:09.621Z,1.80
2022-11-22T22:33:38.440Z,1.70
2022-11-22T22:36:06.901Z,1.70
2022-11-22T22:38:34.944Z,1.70
2022-11-22T22:41:03.694Z,1.70
2022-11-22T22:43:36.114Z,1.70
2022-11-22T22:46:07.572Z,1.70
2022-11-22T22:48:34.907Z,1.60
2022-11-22T22:51:11.923Z,1.60
2022-11-22T22:53:39.191Z,1.60
2022-11-22T22:56:07.210Z,1.70
2022-11-22T22:58:34.459Z,1.60
2022-11-22T23:01:05.969Z,1.50
2022-11-22T23:03:33.206Z,1.60
2022-11-22T23:06:05.431Z,1.60
2022-11-22T23:08:32.397Z,1.50
2022-11-22T23:11:08.172Z,1.50
2022-11-22T23:13:37.988Z,1.40
2022-11-22T23:16:06.564Z,1.40
2022-11-22T23:18:39.328Z,1.30
2022-11-22T23:21:09.012Z,1.30
2022-11-22T23:23:36.149Z,1.30
2022-11-22T23:26:05.710Z,1.30
2022-11-22T23:28:33.409Z,1.30
2022-11-22T23:31:13.704Z,1.30
2022-11-22T23:33:41.751Z,1.20
2022-11-22T23:36:11.326Z,1.20
2022-11-22T23:38:38.551Z,1.20
2022-11-22T23:41:05.829Z,1.10
2022-11-22T23:43:33.107Z,1.10
2022-11-22T23:46:00.269Z,1.10
2022-11-22T23:48:27.909Z,1.00
2022-11-22T23:50:55.309Z,1.00
2022-11-22T23:53:22.492Z,1.00
2022-11-22T23:55:49.622Z,1.00
2022-11-22T23:58:16.577Z,1.00
